createdAt,value
2018-07-28T00:00:38.579Z,27.19
2018-07-28T00:03:31.187Z,27.71
2018-07-28T00:06:23.684Z,27.65
2018-07-28T00:09:16.227Z,27.32
2018-07-28T00:12:08.682Z,27.54
2018-07-28T00:15:04.163Z,27.49
2018-07-28T00:17:56.722Z,27.27
2018-07-28T00:20:49.174Z,27.16
2018-07-28T00:23:41.715Z,27.20
2018-07-28T00:26:34.207Z,27.17
2018-07-28T00:29:26.854Z,27.16
2018-07-28T00:32:20.111Z,27.08
2018-07-28T00:35:12.706Z,27.03
2018-07-28T00:38:05.264Z,27.28
2018-07-28T00:40:57.706Z,27.69
2018-07-28T00:43:50.282Z,27.22
2018-07-28T00:46:42.870Z,27.11
2018-07-28T00:49:35.403Z,27.14
2018-07-28T00:52:27.865Z,27.15
2018-07-28T00:55:20.354Z,27.11
2018-07-28T00:58:12.946Z,27.12
2018-07-28T01:01:05.560Z,27.16
2018-07-28T01:03:58.055Z,27.15
2018-07-28T01:06:50.594Z,27.03
2018-07-28T01:09:43.103Z,27.04
2018-07-28T01:12:35.786Z,27.04
2018-07-28T01:15:28.334Z,27.13
2018-07-28T01:18:20.782Z,27.11
2018-07-28T01:21:13.244Z,26.98
2018-07-28T01:24:05.946Z,26.88
2018-07-28T01:26:58.517Z,26.87
2018-07-28T01:29:51.001Z,26.98
2018-07-28T01:32:43.584Z,27.04
2018-07-28T01:35:36.153Z,26.96
2018-07-28T01:38:28.754Z,26.83
2018-07-28T01:41:21.218Z,26.61
2018-07-28T01:44:13.789Z,26.55
2018-07-28T01:47:06.271Z,26.56
2018-07-28T01:49:58.734Z,26.53
2018-07-28T01:52:51.564Z,26.40
2018-07-28T01:55:44.177Z,26.35
2018-07-28T01:58:36.620Z,26.30
2018-07-28T02:01:29.438Z,26.44
2018-07-28T02:04:22.231Z,26.75
2018-07-28T02:07:14.789Z,26.83
2018-07-28T02:10:08.170Z,26.76
2018-07-28T02:13:00.719Z,26.85
2018-07-28T02:15:53.488Z,26.87
2018-07-28T02:18:46.213Z,26.90
2018-07-28T02:21:39.088Z,26.92
2018-07-28T02:24:31.606Z,26.95
2018-07-28T02:27:24.316Z,26.94
2018-07-28T02:30:17.060Z,26.91
2018-07-28T02:33:10.193Z,26.84
2018-07-28T02:36:03.087Z,26.94
2018-07-28T02:38:55.947Z,26.97
2018-07-28T02:41:49.150Z,27.00
2018-07-28T02:44:41.740Z,27.00
2018-07-28T02:47:34.261Z,27.03
2018-07-28T02:50:26.808Z,27.02
2018-07-28T02:53:20.526Z,27.02
2018-07-28T02:56:14.548Z,27.07
2018-07-28T02:59:07.385Z,27.09
2018-07-28T03:02:00.082Z,27.11
2018-07-28T03:04:52.714Z,27.12
2018-07-28T03:07:45.316Z,27.13
2018-07-28T03:10:37.865Z,27.24
2018-07-28T03:13:30.500Z,27.34
2018-07-28T03:16:23.024Z,27.28
2018-07-28T03:19:15.575Z,27.15
2018-07-28T03:22:08.047Z,27.16
2018-07-28T03:25:00.747Z,27.19
2018-07-28T03:27:53.730Z,27.29
2018-07-28T03:30:46.342Z,27.26
2018-07-28T03:33:38.952Z,27.26
2018-07-28T03:36:32.394Z,27.21
2018-07-28T03:39:24.996Z,27.17
2018-07-28T03:42:17.528Z,27.16
2018-07-28T03:45:10.594Z,27.19
2018-07-28T03:48:03.113Z,27.38
2018-07-28T03:50:55.724Z,27.45
2018-07-28T03:53:48.199Z,27.43
2018-07-28T03:56:40.851Z,27.46
2018-07-28T03:59:33.332Z,27.30
2018-07-28T04:02:25.952Z,27.39
2018-07-28T04:05:18.771Z,27.44
2018-07-28T04:08:11.262Z,27.42
2018-07-28T04:11:03.758Z,27.44
2018-07-28T04:13:56.244Z,27.33
2018-07-28T04:16:48.721Z,27.27
2018-07-28T04:19:41.251Z,27.25
2018-07-28T04:22:33.715Z,27.33
2018-07-28T04:25:26.215Z,27.36
2018-07-28T04:28:18.739Z,27.28
2018-07-28T04:31:11.303Z,27.26
2018-07-28T04:34:03.782Z,27.17
2018-07-28T04:36:56.423Z,27.06
2018-07-28T04:39:49.079Z,27.20
2018-07-28T04:42:42.646Z,27.39
2018-07-28T04:45:35.170Z,27.41
2018-07-28T04:48:27.727Z,27.42
2018-07-28T04:51:20.246Z,27.43
2018-07-28T04:54:12.736Z,27.42
2018-07-28T04:57:05.252Z,27.46
2018-07-28T04:59:57.910Z,27.45
2018-07-28T05:02:50.454Z,27.45
2018-07-28T05:05:43.228Z,27.44
2018-07-28T05:08:36.509Z,27.46
2018-07-28T05:11:29.103Z,27.46
2018-07-28T05:14:21.619Z,27.47
2018-07-28T05:17:14.261Z,27.42
2018-07-28T05:20:06.873Z,27.41
2018-07-28T05:22:59.415Z,27.40
2018-07-28T05:25:51.998Z,27.42
2018-07-28T05:28:44.589Z,27.32
2018-07-28T05:31:37.111Z,27.43
2018-07-28T05:34:30.242Z,27.42
2018-07-28T05:37:22.774Z,27.40
2018-07-28T05:40:15.307Z,27.35
2018-07-28T05:43:08.088Z,27.35
2018-07-28T05:46:00.660Z,27.30
2018-07-28T05:48:53.362Z,27.38
2018-07-28T05:51:45.875Z,27.22
2018-07-28T05:54:39.077Z,27.22
2018-07-28T05:57:31.674Z,27.21
2018-07-28T06:00:24.143Z,27.28
2018-07-28T06:03:16.678Z,27.31
2018-07-28T06:06:09.315Z,27.35
2018-07-28T06:09:01.797Z,27.38
2018-07-28T06:11:54.262Z,27.40
2018-07-28T06:14:46.935Z,27.35
2018-07-28T06:17:39.549Z,27.40
2018-07-28T06:20:32.120Z,27.46
2018-07-28T06:23:25.275Z,27.40
2018-07-28T06:26:17.840Z,27.39
2018-07-28T06:29:10.329Z,27.37
2018-07-28T06:32:03.410Z,27.35
2018-07-28T06:34:56.158Z,27.36
2018-07-28T06:37:48.811Z,27.39
2018-07-28T06:40:41.377Z,27.30
2018-07-28T06:43:34.035Z,27.30
2018-07-28T06:46:26.630Z,27.39
2018-07-28T06:49:19.149Z,27.42
2018-07-28T06:52:11.744Z,27.39
2018-07-28T06:55:06.843Z,27.39
2018-07-28T06:58:02.162Z,27.33
2018-07-28T07:00:54.874Z,27.37
2018-07-28T07:03:48.743Z,26.90
2018-07-28T07:06:41.666Z,26.65
2018-07-28T07:09:34.425Z,26.62
2018-07-28T07:12:26.998Z,26.47
2018-07-28T07:15:19.691Z,26.63
2018-07-28T07:18:12.279Z,26.54
2018-07-28T07:21:04.824Z,26.72
2018-07-28T07:23:57.472Z,26.87
2018-07-28T07:26:50.218Z,26.68
2018-07-28T07:29:42.830Z,26.65
2018-07-28T07:32:35.478Z,26.77
2018-07-28T07:35:27.983Z,26.66
2018-07-28T07:38:20.544Z,26.69
2018-07-28T07:41:13.163Z,26.75
2018-07-28T07:44:05.803Z,26.63
2018-07-28T07:46:58.392Z,26.73
2018-07-28T07:49:50.954Z,26.72
2018-07-28T07:52:43.517Z,26.83
2018-07-28T07:55:36.223Z,26.76
2018-07-28T07:58:29.364Z,26.88
2018-07-28T08:01:22.110Z,26.88
2018-07-28T08:04:15.131Z,27.01
2018-07-28T08:07:07.673Z,26.96
2018-07-28T08:10:00.200Z,27.13
2018-07-28T08:12:52.629Z,27.15
2018-07-28T08:15:45.140Z,27.18
2018-07-28T08:18:37.981Z,27.27
2018-07-28T08:21:31.405Z,27.32
2018-07-28T08:24:24.054Z,27.39
2018-07-28T08:27:17.323Z,27.34
2018-07-28T08:30:10.084Z,27.45
2018-07-28T08:33:03.268Z,27.42
2018-07-28T08:35:56.225Z,27.43
2018-07-28T08:38:49.015Z,27.48
2018-07-28T08:41:43.732Z,27.35
2018-07-28T08:44:36.435Z,27.45
2018-07-28T08:47:29.042Z,27.62
2018-07-28T08:50:21.602Z,27.81
2018-07-28T08:53:14.299Z,27.90
2018-07-28T08:56:06.807Z,27.81
2018-07-28T08:58:59.420Z,27.70
2018-07-28T09:01:52.139Z,27.75
2018-07-28T09:04:44.894Z,27.78
2018-07-28T09:07:37.569Z,27.82
2018-07-28T09:10:31.008Z,27.82
2018-07-28T09:13:23.480Z,27.87
2018-07-28T09:16:15.969Z,27.93
2018-07-28T09:19:08.531Z,27.93
2018-07-28T09:22:01.202Z,27.88
2018-07-28T09:24:53.645Z,27.83
2018-07-28T09:27:46.147Z,28.01
2018-07-28T09:30:38.555Z,27.89
2018-07-28T09:33:31.041Z,27.83
2018-07-28T09:36:23.584Z,27.83
2018-07-28T09:39:16.124Z,27.80
2018-07-28T09:42:08.626Z,27.76
2018-07-28T09:45:06.207Z,27.79
2018-07-28T09:47:58.743Z,27.77
2018-07-28T09:50:51.322Z,27.75
2018-07-28T09:53:43.854Z,27.71
2018-07-28T09:56:36.350Z,27.70
2018-07-28T09:59:28.929Z,27.68
2018-07-28T10:02:21.494Z,27.57
2018-07-28T10:05:14.082Z,27.70
2018-07-28T10:08:06.593Z,27.69
2018-07-28T10:10:59.176Z,27.67
2018-07-28T10:13:51.790Z,27.64
2018-07-28T10:16:44.339Z,27.63
2018-07-28T10:19:36.822Z,27.62
2018-07-28T10:22:29.347Z,27.63
2018-07-28T10:25:21.848Z,27.61
2018-07-28T10:28:15.067Z,27.61
2018-07-28T10:31:07.662Z,27.63
2018-07-28T10:34:00.172Z,27.66
2018-07-28T10:36:52.722Z,27.70
2018-07-28T10:39:45.214Z,27.64
2018-07-28T10:42:38.017Z,27.63
2018-07-28T10:45:30.683Z,27.58
2018-07-28T10:48:23.205Z,27.61
2018-07-28T10:51:15.782Z,27.61
2018-07-28T10:54:08.285Z,27.59
2018-07-28T10:57:00.824Z,27.43
2018-07-28T10:59:54.195Z,27.51
2018-07-28T11:02:46.619Z,27.54
2018-07-28T11:05:39.395Z,27.53
2018-07-28T11:08:31.833Z,27.54
2018-07-28T11:11:24.315Z,27.53
2018-07-28T11:14:16.897Z,27.52
2018-07-28T11:17:09.470Z,27.51
2018-07-28T11:20:05.094Z,27.52
2018-07-28T11:22:57.546Z,27.47
2018-07-28T11:25:50.166Z,27.56
2018-07-28T11:28:42.597Z,27.58
2018-07-28T11:31:46.459Z,27.55
2018-07-28T11:34:50.362Z,27.56
2018-07-28T11:38:03.370Z,27.53
2018-07-28T11:41:07.416Z,27.52
2018-07-28T11:44:11.254Z,27.53
2018-07-28T11:47:03.832Z,27.50
2018-07-28T11:49:56.350Z,27.50
2018-07-28T11:52:48.784Z,27.50
2018-07-28T11:55:41.347Z,27.18
2018-07-28T11:58:34.402Z,26.91
2018-07-28T12:01:26.947Z,26.95
2018-07-28T12:04:19.464Z,26.98
2018-07-28T12:07:11.986Z,27.03
2018-07-28T12:10:06.676Z,27.10
2018-07-28T12:12:59.278Z,27.07
2018-07-28T12:15:51.775Z,27.03
2018-07-28T12:18:44.427Z,27.02
2018-07-28T12:21:37.039Z,27.04
2018-07-28T12:24:29.516Z,27.02
2018-07-28T12:27:22.178Z,27.01
2018-07-28T12:30:14.649Z,26.97
2018-07-28T12:33:07.262Z,27.02
2018-07-28T12:35:59.786Z,27.06
2018-07-28T12:38:52.340Z,27.05
2018-07-28T12:41:44.894Z,27.07
2018-07-28T12:44:37.324Z,27.05
2018-07-28T12:47:29.810Z,27.10
2018-07-28T12:50:22.333Z,27.08
2018-07-28T12:53:14.882Z,27.03
2018-07-28T12:56:07.456Z,27.03
2018-07-28T12:58:59.990Z,27.04
2018-07-28T13:05:03.919Z,27.07
2018-07-28T13:07:56.415Z,27.08
2018-07-28T13:10:49.017Z,27.02
2018-07-28T13:13:41.579Z,27.02
2018-07-28T13:16:34.821Z,27.00
2018-07-28T13:19:27.455Z,27.03
2018-07-28T13:22:20.018Z,26.99
2018-07-28T13:25:12.527Z,27.09
2018-07-28T13:28:05.060Z,27.09
2018-07-28T13:30:57.583Z,27.12
2018-07-28T13:33:50.066Z,27.07
2018-07-28T13:36:43.318Z,27.02
2018-07-28T13:39:37.159Z,27.00
2018-07-28T13:42:29.769Z,26.99
2018-07-28T13:45:22.271Z,27.00
2018-07-28T13:48:14.835Z,27.00
2018-07-28T13:51:07.356Z,27.02
2018-07-28T13:54:00.146Z,27.06
2018-07-28T13:56:52.733Z,27.06
2018-07-28T13:59:45.295Z,27.04
2018-07-28T14:02:42.702Z,27.12
2018-07-28T14:05:35.342Z,27.14
2018-07-28T14:08:27.939Z,27.21
2018-07-28T14:11:20.454Z,27.12
2018-07-28T14:14:13.184Z,27.14
2018-07-28T14:17:05.853Z,27.20
2018-07-28T14:19:58.555Z,27.21
2018-07-28T14:22:51.193Z,27.20
2018-07-28T14:25:43.682Z,27.15
2018-07-28T14:28:36.319Z,27.17
2018-07-28T14:31:28.955Z,27.21
2018-07-28T14:34:22.604Z,27.27
2018-07-28T14:37:15.077Z,27.21
2018-07-28T14:40:07.680Z,27.23
2018-07-28T14:43:00.218Z,26.88
2018-07-28T14:45:52.916Z,26.25
2018-07-28T14:48:45.545Z,25.90
2018-07-28T14:51:38.281Z,25.67
2018-07-28T14:54:30.918Z,25.62
2018-07-28T14:57:23.726Z,25.48
2018-07-28T15:00:16.219Z,25.43
2018-07-28T15:03:08.830Z,25.37
2018-07-28T15:08:12.978Z,25.37
2018-07-28T15:13:16.809Z,25.24
2018-07-28T15:18:20.606Z,24.72
2018-07-28T15:23:24.711Z,25.05
2018-07-28T15:28:28.724Z,25.10
2018-07-28T15:33:32.851Z,25.10
2018-07-28T15:38:36.799Z,25.16
2018-07-28T15:43:40.654Z,25.21
2018-07-28T15:48:45.086Z,25.23
2018-07-28T15:53:48.934Z,25.39
2018-07-28T15:58:53.183Z,25.31
2018-07-28T16:03:57.097Z,25.30
2018-07-28T16:09:01.191Z,25.25
2018-07-28T16:14:05.188Z,25.32
2018-07-28T16:19:09.067Z,25.26
2018-07-28T16:24:13.058Z,25.29
2018-07-28T16:29:16.868Z,25.30
2018-07-28T16:34:20.775Z,25.26
2018-07-28T16:39:24.463Z,25.23
2018-07-28T16:44:28.244Z,25.25
2018-07-28T16:49:32.117Z,25.32
2018-07-28T16:54:35.981Z,25.24
2018-07-28T16:59:39.873Z,25.51
2018-07-28T17:04:43.851Z,25.44
2018-07-28T17:09:47.706Z,25.72
2018-07-28T17:14:51.615Z,25.84
2018-07-28T17:19:55.431Z,26.01
2018-07-28T17:24:59.300Z,26.05
2018-07-28T17:30:03.749Z,26.16
2018-07-28T17:35:08.083Z,26.18
2018-07-28T17:40:11.863Z,26.20
2018-07-28T17:45:15.831Z,26.31
2018-07-28T17:50:20.422Z,26.39
2018-07-28T17:55:24.922Z,26.06
2018-07-28T18:00:28.810Z,26.17
2018-07-28T18:05:33.412Z,26.46
2018-07-28T18:10:37.422Z,26.33
2018-07-28T18:15:41.415Z,26.58
2018-07-28T18:20:45.227Z,26.35
2018-07-28T18:25:49.098Z,26.44
2018-07-28T18:30:53.837Z,26.61
2018-07-28T18:35:57.272Z,26.36
2018-07-28T18:41:02.067Z,26.04
2018-07-28T18:46:06.037Z,26.01
2018-07-28T18:51:09.902Z,25.58
2018-07-28T18:56:13.764Z,25.68
2018-07-28T19:01:17.786Z,25.91
2018-07-28T19:06:21.842Z,26.15
2018-07-28T19:11:26.493Z,26.34
2018-07-28T19:16:30.695Z,26.34
2018-07-28T19:21:34.523Z,26.34
2018-07-28T19:26:38.355Z,26.21
2018-07-28T19:31:42.458Z,26.15
2018-07-28T19:36:51.368Z,26.46
2018-07-28T19:42:00.247Z,26.51
2018-07-28T19:47:04.071Z,26.58
2018-07-28T19:52:07.949Z,26.56
2018-07-28T19:57:11.746Z,26.62
2018-07-28T20:02:15.582Z,26.61
2018-07-28T20:07:19.282Z,26.72
2018-07-28T20:12:23.036Z,26.65
2018-07-28T20:17:27.052Z,26.58
2018-07-28T20:22:30.843Z,26.14
2018-07-28T20:27:34.646Z,25.92
2018-07-28T20:32:38.484Z,25.69
2018-07-28T20:37:42.342Z,25.56
2018-07-28T20:42:46.207Z,25.46
2018-07-28T20:47:50.110Z,25.39
2018-07-28T20:52:53.910Z,25.49
2018-07-28T20:57:57.747Z,25.48
2018-07-28T21:03:01.563Z,25.97
2018-07-28T21:08:05.495Z,26.07
2018-07-28T21:13:09.311Z,26.10
2018-07-28T21:18:13.051Z,25.90
2018-07-28T21:23:17.468Z,25.98
2018-07-28T21:28:21.229Z,26.14
2018-07-28T21:33:25.056Z,26.24
2018-07-28T21:38:28.834Z,26.22
2018-07-28T21:43:32.627Z,26.26
2018-07-28T21:48:36.460Z,26.25
2018-07-28T21:53:40.297Z,26.24
2018-07-28T21:58:44.088Z,26.37
2018-07-28T22:03:47.916Z,26.44
2018-07-28T22:08:51.714Z,26.32
2018-07-28T22:13:55.558Z,26.14
2018-07-28T22:18:59.371Z,26.25
2018-07-28T22:24:03.216Z,26.32
2018-07-28T22:29:07.059Z,26.31
2018-07-28T22:34:10.894Z,26.31
2018-07-28T22:39:14.695Z,26.44
2018-07-28T22:44:18.598Z,26.38
2018-07-28T22:49:22.411Z,26.38
2018-07-28T22:54:26.434Z,26.32
2018-07-28T22:59:30.237Z,26.39
2018-07-28T23:04:34.033Z,26.33
2018-07-28T23:09:37.867Z,26.23
2018-07-28T23:14:41.678Z,26.10
2018-07-28T23:19:45.409Z,26.15
2018-07-28T23:24:49.266Z,26.26
2018-07-28T23:29:53.117Z,26.08
2018-07-28T23:34:56.905Z,26.31
2018-07-28T23:40:00.743Z,26.16
2018-07-28T23:45:06.438Z,26.20
2018-07-28T23:50:10.253Z,26.29
2018-07-28T23:55:14.095Z,26.37
